Time;durP1;ratioP1;P1;durP2;ratioP2;P2;SDS_P1;SDS_P2;PMS_P1;PMS_P2;Temp;Humidity;BMP_temperature;BMP_pressure;BME280_temperature;BME280_humidity;BME280_pressure;Samples;Min_cycle;Max_cycle;Signal;HPM_P1;HPM_P2
2024/02/13 00:00:12;;;;;;;8.73;3.97;;;6.20;99.90;;;;;;5056974;28;20032;-76
2024/02/13 00:02:39;;;;;;;11.13;4.18;;;6.10;99.90;;;;;;5057142;28;20084;-76
2024/02/13 00:05:07;;;;;;;8.02;3.80;;;6.30;99.90;;;;;;5057918;28;20090;-76
2024/02/13 00:07:36;;;;;;;8.60;4.20;;;6.20;99.90;;;;;;5056712;28;20036;-76
2024/02/13 00:10:03;;;;;;;11.13;3.97;;;6.10;99.90;;;;;;5056673;28;20032;-76
2024/02/13 00:12:28;;;;;;;12.05;4.50;;;6.10;99.90;;;;;;5040306;28;20117;-76
2024/02/13 00:14:55;;;;;;;9.38;3.63;;;6.10;99.90;;;;;;5056935;28;20064;-76
2024/02/13 00:17:23;;;;;;;9.70;3.67;;;6.20;99.90;;;;;;5057009;28;20111;-76
2024/02/13 00:19:50;;;;;;;10.23;4.07;;;6.00;99.90;;;;;;5056430;28;20052;-76
2024/02/13 00:22:15;;;;;;;9.82;3.80;;;6.10;99.90;;;;;;5056693;28;20052;-76
2024/02/13 00:24:43;;;;;;;9.07;4.60;;;6.10;99.90;;;;;;5040109;28;20423;-76
2024/02/13 00:27:09;;;;;;;13.18;4.65;;;5.90;99.90;;;;;;5040250;28;20564;-76
2024/02/13 00:29:35;;;;;;;10.05;4.20;;;5.90;99.90;;;;;;5074153;28;20123;-76
2024/02/13 00:32:00;;;;;;;8.90;4.05;;;6.00;99.90;;;;;;5056679;28;20389;-75
2024/02/13 00:34:26;;;;;;;10.15;5.43;;;5.90;99.90;;;;;;5056622;28;20484;-75
2024/02/13 00:36:52;;;;;;;16.70;5.15;;;5.90;99.90;;;;;;5056413;28;20449;-75
2024/02/13 00:39:18;;;;;;;16.25;4.80;;;5.80;99.90;;;;;;5056274;28;20490;-76
2024/02/13 00:41:44;;;;;;;15.00;5.85;;;5.80;99.90;;;;;;5039873;28;20048;-76
2024/02/13 00:44:11;;;;;;;10.05;4.90;;;5.90;99.90;;;;;;5056284;28;20036;-75
2024/02/13 00:46:37;;;;;;;10.45;4.90;;;5.80;99.90;;;;;;5039852;28;20063;-75
2024/02/13 00:49:03;;;;;;;12.63;5.82;;;5.70;99.90;;;;;;5056147;28;20044;-76
2024/02/13 00:51:29;;;;;;;17.27;6.75;;;5.60;99.90;;;;;;5055977;28;20491;-75
2024/02/13 00:53:56;;;;;;;11.82;6.32;;;5.70;99.90;;;;;;5056387;28;20037;-76
2024/02/13 00:56:22;;;;;;;15.75;6.95;;;5.70;99.90;;;;;;5056074;28;20116;-76
2024/02/13 00:58:47;;;;;;;12.48;6.25;;;5.80;99.90;;;;;;5055891;28;20087;-76
2024/02/13 01:01:13;;;;;;;15.55;7.10;;;5.80;99.90;;;;;;5073642;28;20473;-75
2024/02/13 01:03:40;;;;;;;15.30;6.63;;;5.60;99.90;;;;;;5055028;28;20037;-75
2024/02/13 01:06:07;;;;;;;19.90;7.90;;;5.50;99.90;;;;;;5039345;28;20043;-75
2024/02/13 01:08:34;;;;;;;13.35;8.10;;;5.40;99.90;;;;;;5055700;28;20518;-75
2024/02/13 01:11:00;;;;;;;13.75;7.22;;;5.70;99.90;;;;;;5055635;28;20446;-76
2024/02/13 01:13:26;;;;;;;18.80;7.90;;;5.60;99.90;;;;;;5055742;28;20039;-76
2024/02/13 01:15:52;;;;;;;16.00;8.05;;;5.70;99.90;;;;;;5055699;28;20070;-76
2024/02/13 01:18:17;;;;;;;17.30;8.05;;;5.50;99.90;;;;;;5055648;28;20045;-75
2024/02/13 01:20:43;;;;;;;15.30;8.10;;;5.60;99.90;;;;;;5038877;28;20040;-75
2024/02/13 01:23:11;;;;;;;16.48;8.20;;;5.50;99.90;;;;;;5055571;28;20051;-75
2024/02/13 01:25:38;;;;;;;13.30;8.13;;;5.50;99.90;;;;;;5055525;28;20048;-75
2024/02/13 01:28:07;;;;;;;18.05;8.30;;;5.60;99.90;;;;;;5055161;28;20078;-76
2024/02/13 01:30:34;;;;;;;16.65;9.27;;;5.40;99.90;;;;;;5055126;28;20566;-75
2024/02/13 01:33:00;;;;;;;19.67;8.93;;;5.70;99.90;;;;;;5053406;28;20036;-76
2024/02/13 01:35:27;;;;;;;17.55;9.50;;;5.50;99.90;;;;;;5063487;28;20041;-77
2024/02/13 01:37:53;;;;;;;27.65;9.73;;;5.40;99.90;;;;;;5049794;28;20033;-76
2024/02/13 01:40:18;;;;;;;15.52;8.90;;;5.60;99.90;;;;;;5052650;28;20044;-75
2024/02/13 01:42:49;;;;;;;18.50;9.15;;;5.40;99.90;;;;;;5055205;28;20036;-75
2024/02/13 01:45:16;;;;;;;18.50;9.90;;;5.40;99.90;;;;;;5055062;28;20068;-76
2024/02/13 01:47:43;;;;;;;19.50;9.45;;;5.60;99.90;;;;;;5054905;28;20048;-75
2024/02/13 01:50:10;;;;;;;20.67;10.75;;;5.50;99.90;;;;;;5055426;28;20051;-76
2024/02/13 01:52:37;;;;;;;14.43;9.27;;;5.30;99.90;;;;;;5055263;28;20468;-76
2024/02/13 01:55:04;;;;;;;16.55;9.32;;;5.40;99.90;;;;;;5054937;28;20732;-76
2024/02/13 01:57:35;;;;;;;16.60;9.55;;;5.70;99.90;;;;;;5071590;28;20079;-75
2024/02/13 02:00:03;;;;;;;18.88;10.35;;;5.60;99.90;;;;;;5054592;28;20041;-76
2024/02/13 02:02:32;;;;;;;18.92;9.88;;;5.60;99.90;;;;;;5054998;28;20048;-76
2024/02/13 02:05:00;;;;;;;17.77;9.98;;;5.30;99.90;;;;;;5055052;28;20048;-75
2024/02/13 02:07:27;;;;;;;20.95;9.10;;;5.60;99.90;;;;;;5071597;28;20041;-76
2024/02/13 02:09:56;;;;;;;16.63;9.35;;;5.50;99.90;;;;;;5054304;28;20055;-76
2024/02/13 02:12:22;;;;;;;15.27;8.98;;;5.40;99.90;;;;;;5054780;28;20162;-75
2024/02/13 02:14:48;;;;;;;17.27;10.05;;;5.60;99.90;;;;;;5054349;28;20041;-76
2024/02/13 02:17:13;;;;;;;17.85;9.13;;;5.40;99.90;;;;;;5054486;28;20198;-76
2024/02/13 02:19:39;;;;;;;15.25;9.60;;;5.60;99.90;;;;;;5055281;28;20043;-76
2024/02/13 02:22:06;;;;;;;20.42;9.52;;;5.40;99.90;;;;;;5054430;28;20051;-76
2024/02/13 02:24:35;;;;;;;21.73;9.85;;;5.60;99.90;;;;;;5054310;28;20051;-75
2024/02/13 02:27:02;;;;;;;20.13;10.48;;;5.60;99.90;;;;;;5070917;28;20040;-76
2024/02/13 02:29:28;;;;;;;19.33;10.10;;;5.30;99.90;;;;;;5037564;28;20045;-76
2024/02/13 02:31:54;;;;;;;16.30;8.70;;;5.60;99.90;;;;;;5054071;28;20045;-75
2024/02/13 02:34:19;;;;;;;21.35;10.57;;;5.30;99.90;;;;;;5070923;28;20090;-76
2024/02/13 02:36:50;;;;;;;21.33;10.05;;;5.40;99.90;;;;;;5046049;28;20098;-74
2024/02/13 02:39:19;;;;;;;25.08;10.25;;;5.40;99.90;;;;;;5054003;28;20066;-76
2024/02/13 02:41:45;;;;;;;20.70;11.05;;;5.50;99.90;;;;;;5053846;28;20039;-75
2024/02/13 02:44:11;;;;;;;21.27;11.73;;;5.50;99.90;;;;;;5054325;28;20056;-76
2024/02/13 02:46:36;;;;;;;20.67;11.20;;;5.20;99.90;;;;;;5053956;28;20032;-76
2024/02/13 02:49:02;;;;;;;23.73;10.80;;;5.20;99.90;;;;;;5054159;28;20040;-76
2024/02/13 02:51:28;;;;;;;24.38;11.85;;;5.20;99.90;;;;;;5037241;28;20041;-76
2024/02/13 02:53:53;;;;;;;18.58;10.55;;;5.40;99.90;;;;;;5053945;28;20041;-76
2024/02/13 02:56:19;;;;;;;20.65;11.35;;;5.20;99.90;;;;;;5053816;28;20032;-76
2024/02/13 02:58:44;;;;;;;20.95;10.05;;;5.20;99.90;;;;;;5054195;28;20036;-75
2024/02/13 03:01:10;;;;;;;23.38;11.00;;;5.20;99.90;;;;;;5037080;28;20033;-76
2024/02/13 03:03:36;;;;;;;28.70;12.60;;;5.50;99.90;;;;;;5054135;28;20036;-76
2024/02/13 03:06:05;;;;;;;22.85;11.85;;;5.20;99.90;;;;;;5053728;28;20119;-76
2024/02/13 03:08:31;;;;;;;24.50;12.10;;;5.40;99.90;;;;;;5053773;28;20124;-76
2024/02/13 03:10:57;;;;;;;24.35;11.85;;;5.20;99.90;;;;;;5071391;28;20044;-76
2024/02/13 03:13:22;;;;;;;22.75;11.88;;;5.60;99.90;;;;;;5053664;28;20029;-76
2024/02/13 03:15:49;;;;;;;21.45;12.90;;;5.30;99.90;;;;;;5071667;28;20044;-76
2024/02/13 03:18:15;;;;;;;26.50;14.48;;;5.40;99.90;;;;;;5053482;28;20385;-75
2024/02/13 03:20:42;;;;;;;24.60;15.30;;;5.30;99.90;;;;;;5053711;28;20056;-76
2024/02/13 03:23:08;;;;;;;23.48;13.68;;;5.20;99.90;;;;;;5053498;28;20045;-76
2024/02/13 03:25:33;;;;;;;27.45;15.27;;;5.50;99.90;;;;;;5052884;28;20448;-75
2024/02/13 03:28:00;;;;;;;24.70;14.20;;;5.20;99.90;;;;;;5071071;28;20577;-75
2024/02/13 03:30:26;;;;;;;23.35;13.63;;;5.40;99.90;;;;;;5053281;28;20048;-76
2024/02/13 03:32:51;;;;;;;27.00;15.98;;;5.20;99.90;;;;;;5053443;28;20037;-75
2024/02/13 03:35:17;;;;;;;28.63;16.10;;;5.40;99.90;;;;;;5036881;28;20044;-75
2024/02/13 03:37:43;;;;;;;28.02;15.20;;;5.40;99.90;;;;;;5053343;28;20037;-75
2024/02/13 03:40:10;;;;;;;25.23;14.30;;;5.10;99.90;;;;;;5053218;28;20606;-76
2024/02/13 03:42:38;;;;;;;25.23;14.77;;;5.30;99.90;;;;;;5053618;28;20131;-76
2024/02/13 03:45:05;;;;;;;29.10;13.80;;;5.20;99.90;;;;;;5053256;28;20040;-76
2024/02/13 03:47:33;;;;;;;28.85;16.52;;;5.10;99.90;;;;;;5053386;28;20055;-75
2024/02/13 03:49:58;;;;;;;25.88;14.80;;;5.10;99.90;;;;;;5053054;28;20041;-76
2024/02/13 03:52:25;;;;;;;29.58;15.48;;;5.20;99.90;;;;;;5053244;28;20040;-76
2024/02/13 03:54:50;;;;;;;28.58;15.60;;;5.00;99.90;;;;;;5053419;28;20120;-76
2024/02/13 03:57:16;;;;;;;25.80;15.25;;;5.00;99.90;;;;;;5053181;28;20166;-76
2024/02/13 03:59:42;;;;;;;23.65;14.02;;;5.20;99.90;;;;;;5070957;28;20461;-75
2024/02/13 04:02:07;;;;;;;27.42;15.38;;;5.00;99.90;;;;;;5053159;28;20472;-75
2024/02/13 04:04:35;;;;;;;30.55;14.95;;;5.20;99.90;;;;;;5053131;28;20040;-74
2024/02/13 04:07:02;;;;;;;23.60;14.32;;;4.90;99.90;;;;;;5053095;28;20072;-76
2024/02/13 04:09:27;;;;;;;24.38;15.18;;;5.00;99.90;;;;;;5052985;28;20181;-75
2024/02/13 04:11:53;;;;;;;23.67;14.50;;;5.10;99.90;;;;;;5053312;28;20029;-76
2024/02/13 04:14:19;;;;;;;24.33;13.93;;;5.10;99.90;;;;;;5053155;28;20039;-75
2024/02/13 04:16:45;;;;;;;26.30;13.15;;;5.10;99.90;;;;;;5053075;28;20071;-76
2024/02/13 04:19:14;;;;;;;27.52;14.07;;;4.90;99.90;;;;;;5070927;28;20040;-76
2024/02/13 04:21:39;;;;;;;27.67;14.50;;;5.00;99.90;;;;;;5052908;28;20060;-75
2024/02/13 04:24:08;;;;;;;22.73;14.23;;;5.00;99.90;;;;;;5053046;28;20041;-76
2024/02/13 04:26:38;;;;;;;21.48;13.95;;;5.00;99.90;;;;;;5053050;28;20037;-76
2024/02/13 04:29:03;;;;;;;22.30;14.18;;;4.80;99.90;;;;;;5052600;28;20051;-77
2024/02/13 04:31:29;;;;;;;21.83;13.68;;;4.90;99.90;;;;;;5052785;28;20037;-77
2024/02/13 04:33:55;;;;;;;24.77;12.80;;;4.80;99.90;;;;;;5070857;28;20112;-77
2024/02/13 04:36:20;;;;;;;26.00;14.05;;;5.10;99.90;;;;;;5052833;28;20497;-77
2024/02/13 04:38:46;;;;;;;27.45;13.38;;;4.80;99.90;;;;;;5055611;28;20041;-77
2024/02/13 04:41:12;;;;;;;23.70;13.70;;;4.80;99.90;;;;;;5074265;28;20415;-77
2024/02/13 04:43:37;;;;;;;22.90;14.02;;;4.90;99.90;;;;;;5074546;28;20048;-77
2024/02/13 04:46:03;;;;;;;23.60;14.05;;;4.90;99.90;;;;;;5056481;28;20068;-77
2024/02/13 04:48:30;;;;;;;19.85;13.68;;;4.80;99.90;;;;;;5056098;28;20484;-76
2024/02/13 04:50:56;;;;;;;20.88;13.10;;;5.00;99.90;;;;;;5055902;28;20416;-77
2024/02/13 04:53:22;;;;;;;29.15;14.85;;;4.80;99.90;;;;;;5056135;28;20044;-77
2024/02/13 04:55:48;;;;;;;22.98;13.25;;;5.00;99.90;;;;;;5056093;28;20040;-77
2024/02/13 04:58:20;;;;;;;30.52;14.20;;;4.70;99.90;;;;;;5056136;28;20029;-77
2024/02/13 05:01:01;;;;;;;22.45;13.02;;;5.00;99.90;;;;;;5039177;28;20045;-77
2024/02/13 05:07:19;;;;;;;23.98;13.73;;;4.80;99.90;;;;;;5056323;28;20084;-77
2024/02/13 05:09:11;;;;;;;22.48;14.48;;;5.00;99.90;;;;;;5055471;28;20045;-77
2024/02/13 05:11:39;;;;;;;20.65;12.88;;;4.90;99.90;;;;;;5055476;28;20515;-77
2024/02/13 05:14:06;;;;;;;22.15;14.18;;;4.80;99.90;;;;;;5055908;28;20059;-77
2024/02/13 05:16:32;;;;;;;24.92;14.23;;;5.00;99.90;;;;;;5055978;28;20028;-76
2024/02/13 05:18:58;;;;;;;20.88;13.98;;;5.00;99.90;;;;;;5055655;28;20041;-77
2024/02/13 05:21:24;;;;;;;26.83;14.43;;;4.70;99.90;;;;;;5055715;28;20037;-77
2024/02/13 05:23:50;;;;;;;26.30;14.32;;;5.10;99.90;;;;;;5055650;28;20423;-77
2024/02/13 05:26:17;;;;;;;23.42;14.75;;;4.90;99.90;;;;;;5055990;28;20416;-77
2024/02/13 05:28:44;;;;;;;23.50;14.27;;;4.90;99.90;;;;;;5055439;28;20549;-77
2024/02/13 05:31:10;;;;;;;22.90;14.18;;;4.80;99.90;;;;;;5055485;28;20416;-76
2024/02/13 05:33:36;;;;;;;22.20;14.32;;;4.80;99.90;;;;;;5055592;28;20101;-77
2024/02/13 05:36:02;;;;;;;27.88;15.32;;;4.90;99.90;;;;;;5073361;28;20492;-76
2024/02/13 05:38:37;;;;;;;27.27;15.32;;;5.00;99.90;;;;;;5038801;28;20416;-76
2024/02/13 05:41:04;;;;;;;27.85;15.75;;;5.00;99.90;;;;;;5055390;28;20105;-77
2024/02/13 05:43:30;;;;;;;27.02;15.20;;;4.90;99.90;;;;;;5055674;28;20110;-77
2024/02/13 05:45:56;;;;;;;27.80;14.38;;;5.00;99.90;;;;;;5038449;28;20041;-77
2024/02/13 05:48:24;;;;;;;27.30;14.85;;;4.80;99.90;;;;;;5054696;28;20062;-77
2024/02/13 05:50:51;;;;;;;25.35;15.20;;;4.90;99.90;;;;;;5038167;28;20041;-77
2024/02/13 05:53:17;;;;;;;26.60;14.55;;;4.80;99.90;;;;;;5054905;28;20036;-77
2024/02/13 05:55:43;;;;;;;24.90;14.93;;;5.00;99.90;;;;;;5054890;28;20078;-77
2024/02/13 05:58:08;;;;;;;28.35;14.77;;;5.00;99.90;;;;;;5054707;28;20068;-77
2024/02/13 06:00:34;;;;;;;26.40;15.63;;;5.00;99.90;;;;;;5054686;28;20037;-77
2024/02/13 06:03:01;;;;;;;24.85;15.13;;;5.00;99.90;;;;;;5054894;28;20068;-76
2024/02/13 06:05:27;;;;;;;25.58;15.63;;;4.80;99.90;;;;;;5055006;28;20101;-76
2024/02/13 06:07:53;;;;;;;26.48;14.18;;;4.80;99.90;;;;;;5054423;28;20047;-77
2024/02/13 06:10:19;;;;;;;32.75;16.65;;;4.90;99.90;;;;;;5054534;28;20044;-77
2024/02/13 06:12:48;;;;;;;28.75;15.40;;;5.00;99.90;;;;;;5054931;28;20550;-77
2024/02/13 06:15:14;;;;;;;30.17;15.13;;;5.10;99.90;;;;;;5054782;28;20396;-77
2024/02/13 06:17:41;;;;;;;25.45;14.82;;;4.90;99.90;;;;;;5054121;28;20077;-77
2024/02/13 06:20:08;;;;;;;36.13;17.40;;;5.10;99.90;;;;;;5072244;28;20106;-77
2024/02/13 06:22:37;;;;;;;25.25;15.50;;;4.90;99.90;;;;;;5037791;28;20411;-77
2024/02/13 06:25:05;;;;;;;25.52;16.10;;;5.00;99.90;;;;;;5054391;28;20044;-77
2024/02/13 06:27:32;;;;;;;27.77;16.10;;;5.00;99.90;;;;;;5054013;28;20036;-77
2024/02/13 06:29:58;;;;;;;26.95;16.98;;;5.10;99.90;;;;;;5054068;28;20184;-77
2024/02/13 06:32:24;;;;;;;31.35;16.45;;;5.20;99.90;;;;;;5072055;28;20115;-77
2024/02/13 06:34:52;;;;;;;31.67;17.70;;;5.10;99.90;;;;;;5072039;28;20039;-77
2024/02/13 06:37:21;;;;;;;25.17;17.15;;;5.20;99.90;;;;;;5054179;28;20076;-77
2024/02/13 06:39:50;;;;;;;26.95;16.27;;;5.10;99.90;;;;;;5053936;28;20041;-77
2024/02/13 06:42:16;;;;;;;32.13;18.70;;;5.20;99.90;;;;;;5053951;28;20040;-77
2024/02/13 06:44:43;;;;;;;29.40;16.75;;;5.10;99.90;;;;;;5054224;28;20058;-77
2024/02/13 06:47:10;;;;;;;28.48;17.25;;;5.20;99.90;;;;;;5054082;28;20408;-77
2024/02/13 06:49:37;;;;;;;25.33;17.00;;;5.10;99.90;;;;;;5053631;28;20134;-77
2024/02/13 06:52:03;;;;;;;32.42;17.27;;;5.10;99.90;;;;;;5053884;28;20033;-77
2024/02/13 06:54:30;;;;;;;30.50;17.23;;;5.10;99.90;;;;;;5053903;28;20411;-77
2024/02/13 06:56:56;;;;;;;25.02;17.20;;;5.10;99.90;;;;;;5053804;28;20040;-77
2024/02/13 06:59:22;;;;;;;26.73;16.42;;;5.00;99.90;;;;;;5053112;28;20123;-77
2024/02/13 07:01:48;;;;;;;28.35;18.23;;;5.20;99.90;;;;;;5053159;28;20174;-77
2024/02/13 07:04:14;;;;;;;27.20;16.38;;;5.20;99.90;;;;;;5053839;28;20140;-77
2024/02/13 07:06:40;;;;;;;29.27;18.90;;;5.00;99.90;;;;;;5053946;28;20047;-77
2024/02/13 07:09:06;;;;;;;25.15;16.58;;;5.00;99.90;;;;;;5053759;28;20127;-77
2024/02/13 07:11:32;;;;;;;36.28;18.60;;;5.10;99.90;;;;;;5054305;28;20390;-78
2024/02/13 07:13:59;;;;;;;27.00;17.63;;;5.00;99.90;;;;;;5038535;28;20590;-76
2024/02/13 07:16:25;;;;;;;27.23;16.95;;;5.00;99.90;;;;;;5055020;28;20086;-77
2024/02/13 07:18:51;;;;;;;26.45;16.55;;;5.10;99.90;;;;;;5055083;28;20037;-77
2024/02/13 07:21:17;;;;;;;26.63;16.02;;;5.00;99.90;;;;;;5054906;28;20041;-78
2024/02/13 07:23:43;;;;;;;21.55;16.20;;;5.00;99.90;;;;;;5056006;28;20040;-77
2024/02/13 07:26:11;;;;;;;25.80;16.73;;;5.10;99.90;;;;;;5055871;28;20499;-77
2024/02/13 07:28:36;;;;;;;25.02;16.85;;;5.10;99.90;;;;;;5040074;28;20050;-77
2024/02/13 07:31:03;;;;;;;23.67;16.58;;;5.10;99.90;;;;;;5049648;28;20119;-77
2024/02/13 07:33:29;;;;;;;25.88;16.42;;;5.00;99.90;;;;;;5062397;28;20431;-77
2024/02/13 07:35:55;;;;;;;26.67;16.45;;;5.10;99.90;;;;;;5038276;28;20081;-77
2024/02/13 07:38:21;;;;;;;27.40;15.70;;;5.20;99.90;;;;;;5055564;28;20119;-77
2024/02/13 07:40:46;;;;;;;26.02;17.65;;;5.00;99.90;;;;;;5054579;28;20060;-77
2024/02/13 07:43:15;;;;;;;29.67;16.40;;;4.90;99.90;;;;;;5054824;28;20040;-77
2024/02/13 07:45:41;;;;;;;29.40;17.67;;;5.20;99.90;;;;;;5036750;28;20440;-77
2024/02/13 07:48:10;;;;;;;21.88;16.33;;;5.20;99.90;;;;;;5053873;28;20125;-77
2024/02/13 07:50:37;;;;;;;25.73;14.70;;;5.20;99.90;;;;;;5057083;28;20063;-77
2024/02/13 07:53:04;;;;;;;25.35;15.48;;;5.30;99.90;;;;;;5058249;28;20068;-77
2024/02/13 07:55:30;;;;;;;26.83;15.13;;;5.10;99.90;;;;;;5059273;28;20044;-78
2024/02/13 07:57:56;;;;;;;23.30;15.75;;;5.20;99.90;;;;;;5061502;28;20087;-78
2024/02/13 08:00:23;;;;;;;30.58;15.93;;;5.40;99.90;;;;;;5056297;28;20041;-77
2024/02/13 08:02:51;;;;;;;23.77;15.00;;;5.20;99.90;;;;;;5053219;28;20084;-75
2024/02/13 08:05:16;;;;;;;26.45;15.02;;;5.30;99.90;;;;;;5053264;28;20041;-76
2024/02/13 08:07:42;;;;;;;26.95;15.73;;;5.50;99.90;;;;;;5052901;28;20036;-75
2024/02/13 08:10:11;;;;;;;21.30;15.20;;;5.30;99.90;;;;;;5052816;28;20049;-75
2024/02/13 08:12:36;;;;;;;24.58;15.98;;;5.40;99.90;;;;;;5039460;28;20387;-75
2024/02/13 08:15:03;;;;;;;22.42;15.35;;;5.30;99.90;;;;;;5039465;28;20033;-75
2024/02/13 08:17:29;;;;;;;25.48;15.93;;;5.40;99.90;;;;;;5056817;28;20045;-76
2024/02/13 08:19:56;;;;;;;24.52;15.45;;;5.50;99.90;;;;;;5056379;28;20040;-76
2024/02/13 08:22:22;;;;;;;22.67;15.07;;;5.50;99.90;;;;;;5056756;28;20167;-76
2024/02/13 08:24:48;;;;;;;25.60;15.57;;;5.60;99.90;;;;;;5056714;28;20131;-76
2024/02/13 08:27:18;;;;;;;24.10;15.63;;;5.50;99.90;;;;;;5074675;28;20040;-76
2024/02/13 08:29:47;;;;;;;25.75;16.05;;;5.60;99.90;;;;;;5056307;28;20044;-76
2024/02/13 08:32:12;;;;;;;30.50;15.88;;;5.60;99.90;;;;;;5056607;28;20036;-76
2024/02/13 08:34:38;;;;;;;38.13;17.33;;;5.70;99.90;;;;;;5056625;28;20039;-76
2024/02/13 08:37:04;;;;;;;27.50;16.52;;;5.60;99.90;;;;;;5073256;28;20041;-76
2024/02/13 08:39:30;;;;;;;27.95;15.85;;;5.70;99.90;;;;;;5055791;28;20047;-76
2024/02/13 08:41:58;;;;;;;26.67;16.27;;;5.90;99.90;;;;;;5072750;28;20062;-76
2024/02/13 08:44:24;;;;;;;29.15;17.25;;;5.60;99.90;;;;;;5074036;28;20084;-76
2024/02/13 08:46:50;;;;;;;28.10;16.30;;;5.80;99.90;;;;;;5056168;28;20078;-78
2024/02/13 08:49:16;;;;;;;28.55;16.33;;;5.70;99.90;;;;;;5074143;28;20478;-77
2024/02/13 08:51:42;;;;;;;25.48;16.13;;;5.90;99.90;;;;;;5074174;28;20046;-77
2024/02/13 08:54:11;;;;;;;26.23;17.67;;;5.80;99.90;;;;;;5056250;28;20032;-76
2024/02/13 08:56:40;;;;;;;29.40;17.85;;;5.80;99.90;;;;;;5056255;28;20076;-77
2024/02/13 08:59:06;;;;;;;23.90;16.50;;;6.00;99.90;;;;;;5055862;28;20399;-77
2024/02/13 09:01:33;;;;;;;25.30;15.60;;;5.90;99.90;;;;;;5056440;28;20082;-78
2024/02/13 09:04:00;;;;;;;23.00;14.35;;;6.00;99.90;;;;;;5074768;28;20089;-77
2024/02/13 09:06:26;;;;;;;30.15;15.90;;;6.00;99.90;;;;;;5057954;28;20049;-78
2024/02/13 09:08:51;;;;;;;28.85;15.85;;;6.10;99.90;;;;;;5039117;28;20036;-77
2024/02/13 09:11:17;;;;;;;23.60;13.90;;;6.20;99.90;;;;;;5056859;28;20222;-78
2024/02/13 09:13:44;;;;;;;29.40;15.32;;;6.20;99.90;;;;;;5058419;28;20151;-77
2024/02/13 09:16:10;;;;;;;27.02;15.15;;;6.10;99.90;;;;;;5035455;28;20074;-76
2024/02/13 09:18:37;;;;;;;23.38;14.27;;;6.30;99.90;;;;;;5048089;28;20048;-77
2024/02/13 09:21:06;;;;;;;24.55;15.13;;;6.30;99.90;;;;;;5038717;28;20410;-76
2024/02/13 09:23:35;;;;;;;25.45;15.20;;;6.50;99.90;;;;;;5054864;28;20123;-76
2024/02/13 09:26:00;;;;;;;31.17;15.23;;;6.50;99.90;;;;;;5055199;28;20041;-77
2024/02/13 09:28:27;;;;;;;24.23;14.75;;;6.50;99.90;;;;;;5054805;28;20094;-77
2024/02/13 09:30:52;;;;;;;24.42;14.55;;;6.60;99.90;;;;;;5055291;28;20139;-77
2024/02/13 09:33:20;;;;;;;23.67;13.68;;;6.60;99.90;;;;;;5055810;28;20135;-77
2024/02/13 09:35:46;;;;;;;23.95;13.65;;;6.70;99.90;;;;;;5055040;28;20086;-76
2024/02/13 09:38:12;;;;;;;23.70;13.52;;;6.70;99.90;;;;;;5060206;28;20423;-78
2024/02/13 09:40:39;;;;;;;19.63;12.93;;;6.70;99.90;;;;;;5067237;28;20123;-78
2024/02/13 09:43:05;;;;;;;25.60;13.27;;;6.80;99.90;;;;;;5050872;28;20087;-79
2024/02/13 09:45:31;;;;;;;22.10;12.35;;;6.90;99.90;;;;;;5076769;28;20076;-76
2024/02/13 09:48:06;;;;;;;19.45;12.30;;;7.00;99.90;;;;;;5071581;28;20483;-77
2024/02/13 09:50:43;;;;;;;19.80;12.32;;;6.90;99.90;;;;;;5051898;28;20129;-77
2024/02/13 09:53:27;;;;;;;22.10;12.82;;;7.00;99.90;;;;;;5054679;28;20448;-77
2024/02/13 09:55:55;;;;;;;25.67;12.27;;;7.10;99.90;;;;;;5067759;28;20032;-77
2024/02/13 09:58:21;;;;;;;18.88;12.23;;;7.10;99.90;;;;;;5054227;28;20051;-77
2024/02/13 10:00:47;;;;;;;19.17;12.15;;;7.20;99.90;;;;;;5044632;28;20059;-77
2024/02/13 10:03:13;;;;;;;17.73;11.00;;;7.20;99.90;;;;;;5054458;28;20045;-78
2024/02/13 10:05:42;;;;;;;19.98;11.23;;;7.20;99.90;;;;;;5038411;28;20093;-77
2024/02/13 10:08:08;;;;;;;22.08;11.50;;;7.20;99.90;;;;;;5054514;28;20078;-77
2024/02/13 10:10:34;;;;;;;19.00;11.02;;;7.30;99.90;;;;;;5053927;28;20037;-77
2024/02/13 10:13:00;;;;;;;18.67;11.25;;;7.40;99.90;;;;;;5053928;28;20070;-77
2024/02/13 10:15:45;;;;;;;20.77;11.20;;;7.30;99.90;;;;;;5054542;28;20041;-77
2024/02/13 10:18:14;;;;;;;15.98;10.80;;;7.40;99.90;;;;;;5037561;28;20043;-76
2024/02/13 10:20:40;;;;;;;23.80;12.20;;;7.40;99.90;;;;;;5057073;28;20508;-76
2024/02/13 10:23:07;;;;;;;19.85;10.82;;;7.50;99.90;;;;;;5018066;28;20055;-76
2024/02/13 10:25:34;;;;;;;19.33;10.10;;;7.60;99.90;;;;;;5034548;28;20056;-76
2024/02/13 10:28:05;;;;;;;17.58;9.52;;;7.60;99.90;;;;;;5048245;28;20063;-75
2024/02/13 10:30:32;;;;;;;17.70;9.73;;;7.50;99.90;;;;;;5054064;28;20044;-75
2024/02/13 10:33:06;;;;;;;19.67;9.82;;;7.60;99.90;;;;;;5054619;28;20496;-76
2024/02/13 10:35:32;;;;;;;19.98;9.80;;;7.50;99.90;;;;;;5054379;28;20041;-75
2024/02/13 10:37:58;;;;;;;17.52;10.02;;;7.60;99.90;;;;;;5054275;28;20127;-75
2024/02/13 10:40:28;;;;;;;17.77;10.88;;;7.60;99.90;;;;;;5054210;28;20119;-74
2024/02/13 10:42:55;;;;;;;21.08;9.45;;;7.70;99.90;;;;;;5054074;28;20048;-74
2024/02/13 10:45:23;;;;;;;20.92;10.13;;;7.70;99.90;;;;;;5054179;28;20047;-76
2024/02/13 10:47:51;;;;;;;17.48;9.30;;;7.80;99.90;;;;;;5037475;28;20123;-75
2024/02/13 10:50:19;;;;;;;16.05;8.45;;;7.80;99.90;;;;;;5053756;28;20047;-75
2024/02/13 10:52:49;;;;;;;18.70;9.80;;;7.80;99.90;;;;;;5037512;28;20047;-75
2024/02/13 10:55:18;;;;;;;17.05;9.38;;;7.80;99.90;;;;;;5053737;28;20040;-75
2024/02/13 10:57:46;;;;;;;24.77;10.18;;;7.90;99.90;;;;;;5053714;28;20068;-75
2024/02/13 11:00:18;;;;;;;16.23;8.90;;;7.90;99.90;;;;;;5053902;28;20045;-74
2024/02/13 11:02:52;;;;;;;15.80;8.85;;;8.00;99.90;;;;;;5053946;28;20045;-75
2024/02/13 11:05:18;;;;;;;15.45;9.70;;;8.00;99.90;;;;;;5037147;28;20062;-75
2024/02/13 11:07:45;;;;;;;16.42;8.98;;;7.90;99.90;;;;;;5053524;28;20058;-75
2024/02/13 11:10:12;;;;;;;19.10;10.38;;;8.00;99.90;;;;;;5053422;28;20127;-76
2024/02/13 11:12:39;;;;;;;18.30;9.10;;;7.90;99.90;;;;;;5054072;28;20040;-76
2024/02/13 11:15:09;;;;;;;17.05;10.30;;;8.00;99.90;;;;;;5053732;28;20068;-75
2024/02/13 11:17:53;;;;;;;12.25;8.15;;;7.90;99.90;;;;;;5053702;28;20052;-75
2024/02/13 11:20:24;;;;;;;13.52;8.48;;;8.00;99.90;;;;;;5053380;28;20036;-75
2024/02/13 11:22:59;;;;;;;15.48;8.88;;;8.00;99.90;;;;;;5053828;28;20044;-75
2024/02/13 11:25:29;;;;;;;16.23;8.88;;;8.00;99.90;;;;;;5053844;28;20178;-76
2024/02/13 11:28:03;;;;;;;19.27;9.55;;;8.00;99.90;;;;;;5053899;28;20441;-76
2024/02/13 11:30:28;;;;;;;;;;;8.00;99.90;;;;;;5053694;28;20041;-75
2024/02/13 11:33:01;;;;;;;12.88;7.38;;;8.00;99.90;;;;;;5056265;28;19916;-77
2024/02/13 11:35:46;;;;;;;14.95;8.68;;;8.00;99.90;;;;;;5053362;28;20037;-75
2024/02/13 11:38:19;;;;;;;14.90;8.95;;;8.00;99.90;;;;;;5053331;28;20500;-75
2024/02/13 11:40:51;;;;;;;13.13;7.72;;;8.00;99.90;;;;;;5053467;28;20499;-75
2024/02/13 11:43:24;;;;;;;16.25;7.95;;;8.10;99.90;;;;;;5042763;28;20037;-76
2024/02/13 11:45:50;;;;;;;14.65;9.05;;;8.10;99.90;;;;;;5048081;28;20040;-76
2024/02/13 11:48:17;;;;;;;15.10;8.55;;;8.00;99.90;;;;;;5065744;28;20052;-75
2024/02/13 11:50:43;;;;;;;15.88;8.07;;;8.00;99.90;;;;;;5057057;28;20058;-75
2024/02/13 11:53:09;;;;;;;19.88;8.38;;;8.10;99.90;;;;;;5057310;28;20043;-76
2024/02/13 11:55:37;;;;;;;16.40;8.45;;;8.00;99.90;;;;;;5057497;28;20044;-75
2024/02/13 11:58:06;;;;;;;17.15;7.82;;;8.20;99.90;;;;;;5056746;28;20068;-75
2024/02/13 12:00:31;;;;;;;11.77;6.95;;;8.20;99.90;;;;;;5074577;28;20044;-75
2024/02/13 12:02:57;;;;;;;16.17;8.05;;;8.20;99.90;;;;;;5056576;28;20039;-75
2024/02/13 12:05:26;;;;;;;13.90;7.35;;;8.20;99.90;;;;;;5039934;28;20048;-76
2024/02/13 12:07:53;;;;;;;13.90;7.53;;;8.40;99.90;;;;;;5053860;28;20047;-75
2024/02/13 12:10:20;;;;;;;15.52;8.02;;;8.30;99.90;;;;;;5055114;28;20448;-75
2024/02/13 12:12:45;;;;;;;14.43;7.43;;;8.40;99.90;;;;;;5039286;28;20051;-75
2024/02/13 12:15:15;;;;;;;12.15;7.53;;;8.50;99.90;;;;;;5056433;28;20041;-75
2024/02/13 12:17:43;;;;;;;13.07;8.38;;;8.60;99.90;;;;;;5056718;28;20036;-75
2024/02/13 12:20:12;;;;;;;11.75;7.70;;;8.70;99.90;;;;;;5056062;28;20628;-76
2024/02/13 12:22:47;;;;;;;10.52;8.38;;;8.70;99.90;;;;;;5056765;28;20076;-76
2024/02/13 12:25:18;;;;;;;11.68;7.43;;;8.70;99.90;;;;;;5056811;28;20040;-75
2024/02/13 12:27:43;;;;;;;18.10;7.55;;;8.70;99.90;;;;;;5056532;28;20087;-75
2024/02/13 12:30:11;;;;;;;14.05;7.60;;;8.70;99.90;;;;;;5056320;28;20076;-75
2024/02/13 12:32:38;;;;;;;11.93;7.18;;;8.70;99.90;;;;;;5056839;28;20036;-76
2024/02/13 12:35:21;;;;;;;12.93;7.68;;;8.80;99.90;;;;;;5073282;28;20072;-76
2024/02/13 12:37:54;;;;;;;9.90;6.60;;;8.80;99.90;;;;;;5056151;28;20123;-75
2024/02/13 12:40:22;;;;;;;13.80;6.90;;;8.80;99.90;;;;;;5056625;28;20045;-75
2024/02/13 12:42:48;;;;;;;12.32;6.88;;;8.90;99.90;;;;;;5056633;28;20296;-76